Terminal Aerodrome Forecast
Issued by NWS

Home | Current Version | Previous Version | Text Only | Print | Product List | Glossary On
Versions: 1 2 3 4 5 6 7 8 9 10 11 12 13 14 15 16 17 18 19 20
000
FTUS45 KABQ 051700 RRA
TAFTCC
TAF
KTCC 051741Z 0518/0618 20011G20KT P6SM VCTS SCT030CB BKN050
     FM052000 23012G20KT P6SM VCSH SCT040 BKN060
     FM052200 23015G25KT P6SM VCTS SCT040CB BKN080
      TEMPO 0523/0602 VRB25G35KT 6SM TSRA OVC025CB
     FM060200 20010KT P6SM SCT025 OVC050
     FM060900 26007KT P6SM FEW015 BKN100
     FM061500 24018G28KT P6SM SCT120=

USA.gov is the U.S. government's official web portal to all federal, state and local government web resources and services.